Date,TemperatureHighF,TemperatureAvgF,TemperatureLowF,DewpointHighF,DewpointAvgF,DewpointLowF,HumidityHigh,HumidityAvg,HumidityLow,PressureMaxIn,PressureMinIn,WindSpeedMaxMPH,WindSpeedAvgMPH,GustSpeedMaxMPH,PrecipitationSumIn
2013-5-1,35,23,12,28,19,8,89,84,74,30.60,29.62,1,0,0,0.00
2013-5-2,29,16,0,14,6,-4,84,65,46,30.92,30.59,2,1,0,0.00
2013-5-3,45,31,14,21,11,5,72,46,24,30.81,30.22,3,1,0,0.00
2013-5-4,42,30,15,28,20,10,89,69,41,30.31,30.11,2,0,0,0.00
2013-5-5,44,31,18,28,22,14,88,70,35,30.32,30.17,2,0,0,0.00
2013-5-6,43,31,23,32,25,19,91,78,52,30.24,30.01,2,0,0,0.00
2013-5-7,35,30,27,27,25,23,87,81,72,30.09,30.00,3,0,0,0.00
2013-5-17,44,43,42,20,18,16,39,37,34,30.09,30.07,1,0,0,0.00
2013-5-18,52,40,32,29,22,13,84,51,30,30.09,29.83,4,1,0,0.00
2013-5-19,42,34,30,28,22,19,77,60,44,29.96,29.81,5,2,0,0.00
2013-5-20,45,35,28,30,23,19,82,63,46,30.09,29.92,4,2,0,0.00
2013-5-21,47,37,28,27,22,18,69,55,38,30.09,29.97,4,2,0,0.00
2013-5-22,58,42,26,32,24,19,79,54,25,30.01,29.88,3,1,0,0.00
2013-5-23,62,44,29,35,29,18,88,61,20,30.01,29.86,4,1,0,0.00
2013-5-24,63,47,27,34,24,15,89,49,17,29.97,29.88,4,1,0,0.00
2013-5-25,63,48,27,24,17,11,69,34,14,29.99,29.88,3,1,0,0.00
2013-5-26,65,50,32,29,19,16,62,32,15,29.91,29.73,4,1,0,0.00
2013-5-27,59,48,35,21,17,9,51,30,19,29.82,29.66,4,1,0,0.00
2013-5-28,59,44,26,27,20,14,73,42,19,29.76,29.59,4,1,0,0.00
2013-5-29,47,37,29,28,23,19,87,59,39,29.76,29.50,4,1,0,0.00
2013-5-30,45,36,29,26,22,17,86,58,33,29.98,29.74,6,2,0,0.00
2013-5-31,46,38,27,24,17,12,84,45,28,30.13,29.94,5,2,0,0.00